createdAt,value
2022-12-11T00:00:27.292Z,97707.31
2022-12-11T00:03:15.824Z,97716.66
2022-12-11T00:06:09.149Z,97720.34
2022-12-11T00:08:54.415Z,97716.03
2022-12-11T00:11:38.936Z,97711.53
2022-12-11T00:14:23.625Z,97721.28
2022-12-11T00:17:08.230Z,97725.19
2022-12-11T00:19:53.137Z,97712.72
2022-12-11T00:22:37.837Z,97720.50
2022-12-11T00:25:22.909Z,97712.91
2022-12-11T00:28:08.139Z,97708.63
2022-12-11T00:30:52.699Z,97697.34
2022-12-11T00:33:37.765Z,97698.13
2022-12-11T00:36:25.807Z,97701.00
2022-12-11T00:39:10.519Z,97687.56
2022-12-11T00:41:55.777Z,97685.78
2022-12-11T00:44:40.860Z,97694.00
2022-12-11T00:47:25.842Z,97693.41
2022-12-11T00:50:11.653Z,97684.59
2022-12-11T00:52:56.285Z,97679.72
2022-12-11T00:55:42.058Z,97672.28
2022-12-11T00:58:27.050Z,97673.28
2022-12-11T01:01:16.014Z,97656.91
2022-12-11T01:04:00.578Z,97649.09
2022-12-11T01:06:45.344Z,97642.28
2022-12-11T01:09:48.647Z,97629.78
2022-12-11T01:12:33.406Z,97615.75
2022-12-11T01:15:19.350Z,97614.56
2022-12-11T01:18:04.487Z,97610.06
2022-12-11T01:20:49.291Z,97609.88
2022-12-11T01:23:34.567Z,97599.94
2022-12-11T01:26:19.271Z,97591.34
2022-12-11T01:29:04.360Z,97598.00
2022-12-11T01:31:49.066Z,97590.56
2022-12-11T01:34:34.219Z,97592.13
2022-12-11T01:37:20.605Z,97594.06
2022-12-11T01:40:07.041Z,97592.88
2022-12-11T01:42:51.689Z,97587.59
2022-12-11T01:45:44.037Z,97580.56
2022-12-11T01:48:31.977Z,97586.19
2022-12-11T01:51:17.115Z,97580.56
2022-12-11T01:54:05.016Z,97581.69
2022-12-11T01:56:52.522Z,97576.47
2022-12-11T01:59:40.481Z,97575.50
2022-12-11T02:02:30.995Z,97568.84
2022-12-11T02:05:16.075Z,97558.72
2022-12-11T02:08:03.029Z,97555.81
2022-12-11T02:11:11.652Z,97554.97
2022-12-11T02:14:04.900Z,97538.97
2022-12-11T02:16:53.253Z,97535.09
2022-12-11T02:20:06.102Z,97536.28
2022-12-11T02:23:12.627Z,97540.56
2022-12-11T02:26:17.666Z,97525.34
2022-12-11T02:29:08.086Z,97533.09
2022-12-11T02:32:25.558Z,97522.16
2022-12-11T02:35:25.394Z,97522.94
2022-12-11T02:38:18.696Z,97512.81
2022-12-11T02:41:06.797Z,97512.44
2022-12-11T02:43:55.416Z,97513.81
2022-12-11T02:46:41.283Z,97504.06
2022-12-11T02:49:27.860Z,97507.16
2022-12-11T02:52:16.897Z,97503.66
2022-12-11T02:55:03.699Z,97510.69
2022-12-11T02:58:03.202Z,97505.41
2022-12-11T03:00:50.948Z,97495.84
2022-12-11T03:03:36.301Z,97485.69
2022-12-11T03:06:23.895Z,97479.63
2022-12-11T03:09:08.612Z,97483.16
2022-12-11T03:11:53.161Z,97480.63
2022-12-11T03:14:39.063Z,97472.59
2022-12-11T03:17:32.023Z,97461.09
2022-12-11T03:20:22.689Z,97462.63
2022-12-11T03:23:30.459Z,97449.97
2022-12-11T03:26:18.181Z,97438.84
2022-12-11T03:29:11.318Z,97434.75
2022-12-11T03:32:08.495Z,97422.84
2022-12-11T03:34:58.051Z,97416.00
2022-12-11T03:37:45.628Z,97412.91
2022-12-11T03:40:33.469Z,97401.44
2022-12-11T03:43:20.757Z,97390.66
2022-12-11T03:46:08.891Z,97369.78
2022-12-11T03:48:58.597Z,97371.13
2022-12-11T03:51:46.043Z,97361.00
2022-12-11T03:54:32.639Z,97347.16
2022-12-11T03:57:21.937Z,97363.16
2022-12-11T04:00:10.487Z,97360.75
2022-12-11T04:03:14.578Z,97355.13
2022-12-11T04:05:59.669Z,97348.72
2022-12-11T04:08:44.887Z,97341.66
2022-12-11T04:11:35.870Z,97348.88
2022-12-11T04:14:39.146Z,97334.63
2022-12-11T04:17:42.705Z,97332.88
2022-12-11T04:20:56.806Z,97347.88
2022-12-11T04:24:00.163Z,97342.59
2022-12-11T04:26:46.797Z,97357.81
2022-12-11T04:29:31.777Z,97349.41
2022-12-11T04:32:16.402Z,97337.75
2022-12-11T04:35:01.225Z,97347.25
2022-12-11T04:37:46.094Z,97349.13
2022-12-11T04:40:30.997Z,97343.88
2022-12-11T04:43:15.751Z,97345.22
2022-12-11T04:46:10.544Z,97349.09
2022-12-11T04:48:57.730Z,97350.63
2022-12-11T04:51:43.104Z,97328.78
2022-12-11T04:54:31.585Z,97318.41
2022-12-11T04:57:16.378Z,97307.47
2022-12-11T05:00:04.206Z,97310.25
2022-12-11T05:02:49.134Z,97300.50
2022-12-11T05:05:34.331Z,97300.88
2022-12-11T05:08:20.293Z,97298.88
2022-12-11T05:11:07.611Z,97304.31
2022-12-11T05:13:52.351Z,97283.03
2022-12-11T05:16:37.431Z,97270.69
2022-12-11T05:19:22.369Z,97269.91
2022-12-11T05:22:07.638Z,97265.59
2022-12-11T05:24:52.514Z,97268.69
2022-12-11T05:27:37.101Z,97271.25
2022-12-11T05:30:21.620Z,97256.56
2022-12-11T05:33:06.661Z,97243.31
2022-12-11T05:35:51.316Z,97225.13
2022-12-11T05:38:36.272Z,97220.25
2022-12-11T05:41:22.346Z,97217.63
2022-12-11T05:44:07.378Z,97222.50
2022-12-11T05:46:52.468Z,97216.00
2022-12-11T05:49:37.482Z,97204.09
2022-12-11T05:52:22.830Z,97178.47
2022-12-11T05:55:08.979Z,97184.09
2022-12-11T05:57:54.195Z,97194.59
2022-12-11T06:00:41.855Z,97203.31
2022-12-11T06:03:26.911Z,97190.97
2022-12-11T06:06:12.471Z,97188.97
2022-12-11T06:08:58.771Z,97184.78
2022-12-11T06:11:43.432Z,97175.66
2022-12-11T06:14:28.458Z,97168.56
2022-12-11T06:17:13.405Z,97182.06
2022-12-11T06:19:58.325Z,97172.66
2022-12-11T06:22:42.908Z,97182.94
2022-12-11T06:25:29.009Z,97169.22
2022-12-11T06:28:14.024Z,97168.78
2022-12-11T06:30:59.980Z,97164.06
2022-12-11T06:33:45.709Z,97163.81
2022-12-11T06:36:30.568Z,97156.97
2022-12-11T06:39:15.253Z,97151.66
2022-12-11T06:41:59.891Z,97138.97
2022-12-11T06:44:44.950Z,97150.69
2022-12-11T06:47:29.933Z,97127.81
2022-12-11T06:50:15.029Z,97131.69
2022-12-11T06:52:59.890Z,97122.31
2022-12-11T06:55:44.448Z,97113.47
2022-12-11T06:58:29.522Z,97104.09
2022-12-11T07:01:17.760Z,97100.31
2022-12-11T07:04:02.517Z,97103.75
2022-12-11T07:06:48.563Z,97098.00
2022-12-11T07:09:33.681Z,97089.69
2022-12-11T07:12:18.549Z,97088.25
2022-12-11T07:15:05.042Z,97081.16
2022-12-11T07:17:50.040Z,97081.25
2022-12-11T07:20:35.189Z,97089.00
2022-12-11T07:23:20.741Z,97069.44
2022-12-11T07:26:08.386Z,97077.34
2022-12-11T07:28:57.101Z,97066.75
2022-12-11T07:31:41.648Z,97073.69
2022-12-11T07:34:26.645Z,97054.91
2022-12-11T07:37:11.328Z,97054.22
2022-12-11T07:39:55.959Z,97051.47
2022-12-11T07:42:45.787Z,97017.09
2022-12-11T07:45:31.162Z,97025.34
2022-12-11T07:48:16.036Z,97022.34
2022-12-11T07:51:15.100Z,97019.88
2022-12-11T07:54:07.250Z,97021.19
2022-12-11T07:56:53.997Z,97014.88
2022-12-11T07:59:39.121Z,97008.81
2022-12-11T08:02:24.080Z,97011.88
2022-12-11T08:05:09.324Z,97011.66
2022-12-11T08:07:55.074Z,97003.28
2022-12-11T08:10:39.943Z,97006.34
2022-12-11T08:13:24.858Z,97003.81
2022-12-11T08:16:12.638Z,96993.38
2022-12-11T08:18:57.797Z,96995.41
2022-12-11T08:21:42.798Z,96988.22
2022-12-11T08:24:27.404Z,96967.81
2022-12-11T08:27:12.433Z,96970.59
2022-12-11T08:29:57.600Z,96964.72
2022-12-11T08:32:42.564Z,96953.25
2022-12-11T08:35:27.775Z,96946.69
2022-12-11T08:38:12.492Z,96939.59
2022-12-11T08:40:57.106Z,96928.66
2022-12-11T08:43:42.775Z,96922.81
2022-12-11T08:46:31.746Z,96922.34
2022-12-11T08:49:16.925Z,96911.16
2022-12-11T08:52:05.194Z,96911.72
2022-12-11T08:54:49.771Z,96902.00
2022-12-11T08:57:34.283Z,96894.59
2022-12-11T09:00:19.497Z,96891.84
2022-12-11T09:03:08.492Z,96872.03
2022-12-11T09:05:57.402Z,96861.38
2022-12-11T09:08:48.719Z,96846.47
2022-12-11T09:11:37.377Z,96835.06
2022-12-11T09:14:22.478Z,96825.66
2022-12-11T09:17:08.157Z,96812.53
2022-12-11T09:19:53.007Z,96805.75
2022-12-11T09:22:38.023Z,96802.25
2022-12-11T09:25:22.576Z,96788.56
2022-12-11T09:28:07.455Z,96790.59
2022-12-11T09:30:52.447Z,96781.84
2022-12-11T09:33:37.771Z,96785.38
2022-12-11T09:36:23.546Z,96772.63
2022-12-11T09:39:11.535Z,96774.91
2022-12-11T09:42:38.641Z,96759.44
2022-12-11T09:45:23.308Z,96740.06
2022-12-11T09:48:10.597Z,96739.06
2022-12-11T09:50:56.635Z,96718.47
2022-12-11T09:53:41.275Z,96709.38
2022-12-11T09:56:41.882Z,96707.34
2022-12-11T09:59:35.424Z,96707.41
2022-12-11T10:02:35.269Z,96702.59
2022-12-11T10:05:30.560Z,96698.81
2022-12-11T10:08:38.372Z,96695.75
2022-12-11T10:11:44.978Z,96680.75
2022-12-11T10:14:32.255Z,96671.38
2022-12-11T10:17:20.757Z,96669.34
2022-12-11T10:20:28.621Z,96664.03
2022-12-11T10:23:19.616Z,96650.78
2022-12-11T10:26:15.416Z,96640.84
2022-12-11T10:29:00.521Z,96633.69
2022-12-11T10:31:57.274Z,96634.75
2022-12-11T10:34:46.964Z,96627.88
2022-12-11T10:37:31.614Z,96618.75
2022-12-11T10:40:19.508Z,96621.31
2022-12-11T10:43:04.184Z,96608.31
2022-12-11T10:45:53.913Z,96603.00
2022-12-11T10:48:50.117Z,96593.81
2022-12-11T10:51:37.056Z,96585.72
2022-12-11T10:54:43.579Z,96588.31
2022-12-11T10:57:34.165Z,96582.72
2022-12-11T11:00:28.073Z,96582.25
2022-12-11T11:03:27.535Z,96575.38
2022-12-11T11:06:15.090Z,96566.97
2022-12-11T11:09:01.237Z,96558.03
2022-12-11T11:11:49.793Z,96556.50
2022-12-11T11:14:34.898Z,96547.06
2022-12-11T11:17:19.396Z,96549.31
2022-12-11T11:20:14.363Z,96543.19
2022-12-11T11:23:02.490Z,96535.28
2022-12-11T11:25:57.302Z,96539.38
2022-12-11T11:28:56.203Z,96532.25
2022-12-11T11:31:41.772Z,96524.13
2022-12-11T11:34:30.181Z,96526.22
2022-12-11T11:37:24.591Z,96520.38
2022-12-11T11:40:32.751Z,96521.66
2022-12-11T11:43:36.500Z,96506.09
2022-12-11T11:46:27.318Z,96522.66
2022-12-11T11:49:11.795Z,96522.66
2022-12-11T11:52:21.059Z,96514.50
2022-12-11T11:55:18.672Z,96517.31
2022-12-11T11:58:14.437Z,96508.41
2022-12-11T12:00:59.061Z,96505.38
2022-12-11T12:03:46.187Z,96506.91
2022-12-11T12:06:31.165Z,96506.66
2022-12-11T12:09:25.050Z,96502.09
2022-12-11T12:12:28.680Z,96486.53
2022-12-11T12:15:24.638Z,96492.19
2022-12-11T12:18:22.110Z,96487.09
2022-12-11T12:21:31.818Z,96477.16
2022-12-11T12:24:43.404Z,96489.38
2022-12-11T12:27:54.625Z,96489.16
2022-12-11T12:30:48.005Z,96490.44
2022-12-11T12:33:51.793Z,96493.72
2022-12-11T12:36:36.924Z,96487.13
2022-12-11T12:39:33.736Z,96490.44
2022-12-11T12:42:44.356Z,96487.13
2022-12-11T12:45:37.331Z,96483.53
2022-12-11T12:48:24.293Z,96496.03
2022-12-11T12:51:13.474Z,96491.19
2022-12-11T12:54:05.569Z,96492.72
2022-12-11T12:56:57.146Z,96493.00
2022-12-11T12:59:42.049Z,96493.22
2022-12-11T13:02:27.069Z,96487.63
2022-12-11T13:05:32.173Z,96497.81
2022-12-11T13:08:24.320Z,96493.50
2022-12-11T13:11:11.551Z,96510.03
2022-12-11T13:14:06.920Z,96508.75
2022-12-11T13:17:03.597Z,96503.38
2022-12-11T13:19:50.103Z,96500.34
2022-12-11T13:22:34.991Z,96503.91
2022-12-11T13:25:30.413Z,96501.16
2022-12-11T13:28:29.215Z,96494.78
2022-12-11T13:31:14.038Z,96492.53
2022-12-11T13:34:26.424Z,96487.94
2022-12-11T13:37:29.164Z,96496.59
2022-12-11T13:40:41.493Z,96493.03
2022-12-11T13:43:30.057Z,96498.38
2022-12-11T13:46:20.375Z,96502.44
2022-12-11T13:49:07.518Z,96501.69
2022-12-11T13:51:55.082Z,96498.63
2022-12-11T13:54:47.976Z,96497.09
2022-12-11T13:57:32.709Z,96501.66
2022-12-11T14:00:23.669Z,96502.44
2022-12-11T14:03:10.419Z,96499.63
2022-12-11T14:05:55.158Z,96498.59
2022-12-11T14:08:43.635Z,96498.31
2022-12-11T14:11:33.808Z,96492.22
2022-12-11T14:14:28.664Z,96485.56
2022-12-11T14:17:14.986Z,96489.66
2022-12-11T14:20:06.483Z,96508.25
2022-12-11T14:22:51.400Z,96502.16
2022-12-11T14:25:36.398Z,96508.81
2022-12-11T14:28:22.734Z,96519.25
2022-12-11T14:31:07.731Z,96518.22
2022-12-11T14:34:02.452Z,96520.28
2022-12-11T14:36:48.849Z,96529.69
2022-12-11T14:39:40.306Z,96526.66
2022-12-11T14:42:41.994Z,96520.56
2022-12-11T14:45:44.172Z,96528.47
2022-12-11T14:48:38.465Z,96519.53
2022-12-11T14:51:24.588Z,96528.50
2022-12-11T14:54:20.493Z,96536.19
2022-12-11T14:57:07.686Z,96531.31
2022-12-11T14:59:54.703Z,96541.53
2022-12-11T15:02:39.870Z,96550.72
2022-12-11T15:05:25.697Z,96542.03
2022-12-11T15:08:10.377Z,96546.91
2022-12-11T15:11:11.947Z,96546.91
2022-12-11T15:13:58.690Z,96543.84
2022-12-11T15:16:43.684Z,96546.63
2022-12-11T15:19:28.173Z,96552.50
2022-12-11T15:22:15.725Z,96551.97
2022-12-11T15:25:01.135Z,96562.16
2022-12-11T15:27:50.914Z,96571.59
2022-12-11T15:30:35.633Z,96579.25
2022-12-11T15:33:21.520Z,96581.53
2022-12-11T15:36:21.019Z,96593.53
2022-12-11T15:39:08.021Z,96587.66
2022-12-11T15:41:52.941Z,96581.50
2022-12-11T15:44:37.521Z,96578.69
2022-12-11T15:47:25.051Z,96586.03
2022-12-11T15:50:27.605Z,96594.88
2022-12-11T15:53:12.200Z,96616.97
2022-12-11T15:55:58.126Z,96607.16
2022-12-11T15:58:44.955Z,96617.97
2022-12-11T16:01:29.969Z,96626.84
2022-12-11T16:04:14.755Z,96635.63
2022-12-11T16:06:59.228Z,96646.25
2022-12-11T16:09:45.518Z,96659.09
2022-12-11T16:12:30.471Z,96678.50
2022-12-11T16:15:21.649Z,96678.41
2022-12-11T16:18:11.801Z,96680.84
2022-12-11T16:20:56.723Z,96696.13
2022-12-11T16:23:41.397Z,96684.84
2022-12-11T16:26:26.565Z,96718.03
2022-12-11T16:29:11.447Z,96708.78
2022-12-11T16:31:56.498Z,96718.31
2022-12-11T16:34:41.519Z,96721.78
2022-12-11T16:37:26.709Z,96724.78
2022-12-11T16:40:11.840Z,96721.69
2022-12-11T16:42:57.004Z,96719.31
2022-12-11T16:45:42.632Z,96728.63
2022-12-11T16:48:27.766Z,96740.25
2022-12-11T16:51:14.261Z,96746.25
2022-12-11T16:53:58.916Z,96748.25
2022-12-11T16:56:44.552Z,96762.38
2022-12-11T16:59:36.578Z,96770.69
2022-12-11T17:02:22.479Z,96771.59
2022-12-11T17:05:07.542Z,96782.53
2022-12-11T17:07:52.251Z,96794.16
2022-12-11T17:10:41.222Z,96790.31
2022-12-11T17:13:25.637Z,96802.44
2022-12-11T17:16:15.767Z,96794.97
2022-12-11T17:19:02.394Z,96799.41
2022-12-11T17:21:51.552Z,96796.47
2022-12-11T17:24:36.441Z,96799.88
2022-12-11T17:27:21.206Z,96836.28
2022-12-11T17:30:06.453Z,96817.34
2022-12-11T17:32:51.415Z,96829.25
2022-12-11T17:35:36.771Z,96829.69
2022-12-11T17:38:21.463Z,96830.72
2022-12-11T17:41:07.307Z,96842.06
2022-12-11T17:43:54.762Z,96828.81
2022-12-11T17:46:39.510Z,96846.28
2022-12-11T17:49:24.487Z,96849.44
2022-12-11T17:52:09.524Z,96858.59
2022-12-11T17:54:53.969Z,96865.13
2022-12-11T17:57:38.751Z,96866.56
2022-12-11T18:00:24.523Z,96861.06
2022-12-11T18:03:11.000Z,96872.72
2022-12-11T18:06:01.904Z,96879.56
2022-12-11T18:08:46.521Z,96888.16
2022-12-11T18:11:31.770Z,96888.16
2022-12-11T18:14:17.615Z,96891.78
2022-12-11T18:17:03.452Z,96905.13
2022-12-11T18:19:48.008Z,96888.00
2022-12-11T18:22:32.894Z,96891.88
2022-12-11T18:25:17.972Z,96899.34
2022-12-11T18:28:03.087Z,96904.53
2022-12-11T18:30:47.683Z,96913.88
2022-12-11T18:33:36.546Z,96914.31
2022-12-11T18:36:21.920Z,96927.53
2022-12-11T18:39:07.182Z,96918.06
2022-12-11T18:42:16.523Z,96927.22
2022-12-11T18:44:56.457Z,96944.38
2022-12-11T18:47:41.152Z,96940.06
2022-12-11T18:50:26.683Z,96947.34
2022-12-11T18:53:11.450Z,96930.91
2022-12-11T18:56:00.387Z,96942.91
2022-12-11T18:58:46.558Z,96943.44
2022-12-11T19:01:33.464Z,96965.13
2022-12-11T19:04:18.003Z,96977.56
2022-12-11T19:07:03.032Z,96980.75
2022-12-11T19:09:48.531Z,96999.31
2022-12-11T19:12:33.841Z,97009.44
2022-12-11T19:15:23.569Z,97019.19
2022-12-11T19:18:09.269Z,97006.22
2022-12-11T19:21:03.235Z,97021.19
2022-12-11T19:23:51.385Z,97022.38
2022-12-11T19:26:36.456Z,97031.38
2022-12-11T19:29:27.398Z,97022.47
2022-12-11T19:32:12.049Z,97020.69
2022-12-11T19:34:56.855Z,97019.56
2022-12-11T19:37:42.542Z,97039.31
2022-12-11T19:40:27.364Z,97043.59
2022-12-11T19:43:11.998Z,97039.91
2022-12-11T19:45:59.208Z,97040.19
2022-12-11T19:48:44.768Z,97063.38
2022-12-11T19:51:37.843Z,97062.16
2022-12-11T19:54:22.642Z,97050.16
2022-12-11T19:57:08.278Z,97057.53
2022-12-11T19:59:57.243Z,97061.59
2022-12-11T20:02:42.302Z,97080.28
2022-12-11T20:05:27.406Z,97067.28
2022-12-11T20:08:43.081Z,97076.63
2022-12-11T20:11:18.930Z,97088.69
2022-12-11T20:14:03.881Z,97079.44
2022-12-11T20:19:54.366Z,97098.13
2022-12-11T20:22:38.785Z,97086.03
2022-12-11T20:25:24.519Z,97083.16
2022-12-11T20:28:09.384Z,97095.22
2022-12-11T20:30:54.400Z,97090.78
2022-12-11T20:33:39.389Z,97100.97
2022-12-11T20:36:24.980Z,97106.59
2022-12-11T20:39:10.178Z,97116.03
2022-12-11T20:41:54.860Z,97110.41
2022-12-11T20:44:42.711Z,97121.44
2022-12-11T20:47:30.419Z,97132.31
2022-12-11T20:50:15.980Z,97140.91
2022-12-11T20:53:00.856Z,97140.50
2022-12-11T20:55:46.244Z,97139.50
2022-12-11T20:58:31.745Z,97152.97
2022-12-11T21:01:18.768Z,97170.88
2022-12-11T21:04:03.400Z,97143.06
2022-12-11T21:06:54.726Z,97162.91
2022-12-11T21:09:39.390Z,97175.94
2022-12-11T21:12:29.780Z,97187.06
2022-12-11T21:15:16.022Z,97177.88
2022-12-11T21:18:01.011Z,97169.34
2022-12-11T21:20:46.137Z,97168.41
2022-12-11T21:23:31.485Z,97162.91
2022-12-11T21:26:16.195Z,97162.16
2022-12-11T21:29:01.803Z,97148.13
2022-12-11T21:31:46.996Z,97165.44
2022-12-11T21:34:31.715Z,97186.84
2022-12-11T21:37:16.415Z,97168.59
2022-12-11T21:40:01.477Z,97177.00
2022-12-11T21:42:46.339Z,97156.94
2022-12-11T21:46:05.491Z,97179.31
2022-12-11T21:48:42.069Z,97179.94
2022-12-11T21:51:36.160Z,97178.59
2022-12-11T21:54:22.457Z,97189.88
2022-12-11T21:57:07.354Z,97193.94
2022-12-11T21:59:51.906Z,97168.88
2022-12-11T22:02:40.856Z,97187.94
2022-12-11T22:05:26.472Z,97183.88
2022-12-11T22:08:10.992Z,97193.38
2022-12-11T22:10:56.159Z,97199.88
2022-12-11T22:13:40.912Z,97195.56
2022-12-11T22:16:25.811Z,97204.31
2022-12-11T22:19:11.221Z,97184.88
2022-12-11T22:21:55.809Z,97181.59
2022-12-11T22:24:40.862Z,97175.22
2022-12-11T22:27:25.643Z,97172.09
2022-12-11T22:30:13.756Z,97173.66
2022-12-11T22:32:58.556Z,97164.50
2022-12-11T22:35:43.149Z,97181.41
2022-12-11T22:38:27.635Z,97176.13
2022-12-11T22:41:22.496Z,97180.56
2022-12-11T22:44:14.814Z,97176.13
2022-12-11T22:46:59.682Z,97177.69
2022-12-11T22:49:44.893Z,97171.69
2022-12-11T22:52:29.903Z,97191.16
2022-12-11T22:55:15.078Z,97182.81
2022-12-11T22:57:59.804Z,97176.41
2022-12-11T23:00:44.452Z,97183.22
2022-12-11T23:03:29.362Z,97170.59
2022-12-11T23:06:18.546Z,97157.19
2022-12-11T23:09:03.924Z,97156.25
2022-12-11T23:11:48.460Z,97140.16
2022-12-11T23:14:33.541Z,97141.50
2022-12-11T23:17:18.114Z,97170.06
2022-12-11T23:20:05.263Z,97168.31
2022-12-11T23:22:50.420Z,97159.00
2022-12-11T23:25:35.146Z,97187.16
2022-12-11T23:28:20.069Z,97186.59
2022-12-11T23:31:05.141Z,97180.78
2022-12-11T23:33:50.024Z,97192.63
2022-12-11T23:36:35.133Z,97200.19
2022-12-11T23:39:19.939Z,97196.09
2022-12-11T23:42:05.418Z,97197.47
2022-12-11T23:44:50.001Z,97191.03
2022-12-11T23:47:35.087Z,97188.34
2022-12-11T23:50:20.032Z,97189.91
2022-12-11T23:53:05.386Z,97201.94
2022-12-11T23:55:49.892Z,97203.88
2022-12-11T23:58:36.594Z,97207.38
